createdAt,value
2022-10-24T00:02:25.161Z,16.69
2022-10-24T00:04:52.153Z,16.69
2022-10-24T00:07:19.100Z,16.67
2022-10-24T00:09:46.024Z,16.67
2022-10-24T00:12:13.031Z,16.65
2022-10-24T00:14:39.985Z,16.65
2022-10-24T00:17:07.545Z,16.63
2022-10-24T00:19:34.578Z,16.61
2022-10-24T00:22:01.499Z,16.61
2022-10-24T00:24:28.435Z,16.59
2022-10-24T00:26:55.321Z,16.59
2022-10-24T00:29:22.238Z,16.59
2022-10-24T00:31:49.400Z,16.60
2022-10-24T00:34:16.997Z,16.62
2022-10-24T00:36:43.865Z,16.62
2022-10-24T00:39:11.847Z,16.62
2022-10-24T00:41:42.948Z,16.63
2022-10-24T00:44:13.484Z,16.61
2022-10-24T00:46:41.949Z,16.61
2022-10-24T00:49:12.861Z,16.60
2022-10-24T00:51:40.057Z,16.59
2022-10-24T00:54:08.595Z,16.58
2022-10-24T00:56:39.755Z,16.56
2022-10-24T00:59:07.915Z,16.55
2022-10-24T01:01:35.114Z,16.54
2022-10-24T01:04:02.393Z,16.53
2022-10-24T01:06:47.972Z,16.51
2022-10-24T01:09:46.751Z,16.50
2022-10-24T01:12:35.771Z,16.51
2022-10-24T01:15:37.619Z,16.52
2022-10-24T01:18:34.366Z,16.53
2022-10-24T01:21:39.316Z,16.56
2022-10-24T01:24:27.531Z,16.56
2022-10-24T01:27:12.447Z,16.56
2022-10-24T01:30:03.763Z,16.52
2022-10-24T01:32:45.810Z,16.52
2022-10-24T01:35:40.650Z,16.52
2022-10-24T01:38:32.148Z,16.50
2022-10-24T01:41:13.281Z,16.49
2022-10-24T01:43:55.087Z,16.48
2022-10-24T01:46:28.060Z,16.47
2022-10-24T01:49:07.732Z,16.45
2022-10-24T01:51:34.639Z,16.44
2022-10-24T01:54:01.650Z,16.44
2022-10-24T01:56:28.575Z,16.45
2022-10-24T01:59:07.499Z,16.45
2022-10-24T02:01:34.489Z,16.48
2022-10-24T02:04:03.205Z,16.49
2022-10-24T02:06:35.161Z,16.49
2022-10-24T02:09:06.386Z,16.50
2022-10-24T02:11:34.979Z,16.48
2022-10-24T02:14:14.583Z,16.46
2022-10-24T02:16:41.525Z,16.46
2022-10-24T02:19:08.452Z,16.45
2022-10-24T02:21:45.760Z,16.43
2022-10-24T02:24:18.106Z,16.43
2022-10-24T02:26:49.304Z,16.41
2022-10-24T02:29:18.859Z,16.39
2022-10-24T02:31:50.597Z,16.40
2022-10-24T02:34:17.622Z,16.38
2022-10-24T02:36:44.627Z,16.38
2022-10-24T02:39:11.571Z,16.38
2022-10-24T02:41:39.134Z,16.38
2022-10-24T02:44:06.057Z,16.40
2022-10-24T02:46:33.056Z,16.41
2022-10-24T02:49:01.536Z,16.41
2022-10-24T02:51:36.022Z,16.41
2022-10-24T02:54:03.491Z,16.42
2022-10-24T02:56:30.828Z,16.40
2022-10-24T02:58:57.816Z,16.40
2022-10-24T03:01:25.031Z,16.38
2022-10-24T03:03:51.986Z,16.38
2022-10-24T03:06:18.926Z,16.38
2022-10-24T03:08:45.825Z,16.37
2022-10-24T03:11:12.760Z,16.37
2022-10-24T03:13:39.671Z,16.36
2022-10-24T03:16:09.053Z,16.35
2022-10-24T03:18:38.657Z,16.34
2022-10-24T03:21:05.608Z,16.34
2022-10-24T03:23:32.504Z,16.35
2022-10-24T03:25:59.671Z,16.35
2022-10-24T03:28:26.666Z,16.36
2022-10-24T03:30:53.823Z,16.37
2022-10-24T03:33:20.774Z,16.38
2022-10-24T03:35:47.696Z,16.39
2022-10-24T03:38:14.630Z,16.38
2022-10-24T03:40:42.182Z,16.36
2022-10-24T03:43:09.163Z,16.37
2022-10-24T03:45:37.749Z,16.36
2022-10-24T03:48:05.555Z,16.35
2022-10-24T03:50:32.517Z,16.35
2022-10-24T03:52:59.863Z,16.34
2022-10-24T03:55:27.165Z,16.34
2022-10-24T03:57:54.081Z,16.32
2022-10-24T04:00:21.685Z,16.33
2022-10-24T04:02:50.951Z,16.32
2022-10-24T04:05:17.961Z,16.34
2022-10-24T04:07:45.119Z,16.34
2022-10-24T04:10:12.267Z,16.34
2022-10-24T04:12:39.227Z,16.37
2022-10-24T04:15:06.770Z,16.37
2022-10-24T04:17:33.648Z,16.40
2022-10-24T04:20:00.573Z,16.40
2022-10-24T04:22:27.731Z,16.40
2022-10-24T04:24:54.660Z,16.38
2022-10-24T04:27:21.592Z,16.36
2022-10-24T04:29:48.501Z,16.36
2022-10-24T04:32:15.428Z,16.36
2022-10-24T04:34:42.318Z,16.35
2022-10-24T04:37:09.250Z,16.37
2022-10-24T04:39:36.141Z,16.38
2022-10-24T04:42:03.114Z,16.39
2022-10-24T04:44:30.296Z,16.40
2022-10-24T04:46:57.249Z,16.39
2022-10-24T04:49:24.231Z,16.41
2022-10-24T04:51:51.211Z,16.41
2022-10-24T04:54:18.130Z,16.42
2022-10-24T04:56:45.047Z,16.44
2022-10-24T04:59:12.064Z,16.44
2022-10-24T05:01:39.176Z,16.41
2022-10-24T05:04:06.222Z,16.42
2022-10-24T05:06:33.220Z,16.41
2022-10-24T05:09:00.116Z,16.40
2022-10-24T05:11:27.096Z,16.38
2022-10-24T05:13:53.980Z,16.38
2022-10-24T05:16:20.913Z,16.36
2022-10-24T05:18:47.842Z,16.36
2022-10-24T05:21:14.895Z,16.36
2022-10-24T05:23:41.887Z,16.36
2022-10-24T05:26:09.071Z,16.36
2022-10-24T05:28:36.126Z,16.35
2022-10-24T05:31:03.145Z,16.37
2022-10-24T05:33:30.128Z,16.38
2022-10-24T05:35:57.136Z,16.40
2022-10-24T05:38:24.205Z,16.41
2022-10-24T05:40:51.773Z,16.42
2022-10-24T05:43:18.826Z,16.43
2022-10-24T05:45:47.230Z,16.44
2022-10-24T05:48:14.243Z,16.44
2022-10-24T05:50:41.232Z,16.43
2022-10-24T05:53:08.984Z,16.43
2022-10-24T05:55:36.697Z,16.43
2022-10-24T05:58:03.638Z,16.43
2022-10-24T06:00:30.611Z,16.43
2022-10-24T06:02:57.538Z,16.42
2022-10-24T06:05:24.465Z,16.43
2022-10-24T06:07:51.378Z,16.42
2022-10-24T06:10:18.447Z,16.40
2022-10-24T06:12:45.529Z,16.42
2022-10-24T06:15:12.794Z,16.45
2022-10-24T06:17:39.708Z,16.48
2022-10-24T06:20:07.103Z,16.50
2022-10-24T06:22:34.036Z,16.52
2022-10-24T06:25:01.869Z,16.55
2022-10-24T06:27:28.814Z,16.56
2022-10-24T06:29:55.703Z,16.58
2022-10-24T06:32:22.626Z,16.58
2022-10-24T06:34:49.578Z,16.57
2022-10-24T06:37:16.544Z,16.58
2022-10-24T06:39:43.495Z,16.58
2022-10-24T06:42:10.381Z,16.59
2022-10-24T06:44:38.764Z,16.58
2022-10-24T06:47:06.437Z,16.59
2022-10-24T06:49:33.564Z,16.61
2022-10-24T06:52:00.471Z,16.61
2022-10-24T06:54:30.143Z,16.61
2022-10-24T06:56:57.556Z,16.62
2022-10-24T06:59:24.646Z,16.62
2022-10-24T07:01:51.707Z,16.64
2022-10-24T07:04:18.981Z,16.66
2022-10-24T07:06:46.075Z,16.65
2022-10-24T07:09:15.289Z,16.65
2022-10-24T07:11:42.987Z,16.67
2022-10-24T07:14:10.074Z,16.68
2022-10-24T07:16:37.053Z,16.67
2022-10-24T07:19:04.863Z,16.69
2022-10-24T07:21:32.346Z,16.70
2022-10-24T07:23:59.584Z,16.69
2022-10-24T07:26:26.868Z,16.70
2022-10-24T07:28:55.033Z,16.71
2022-10-24T07:31:24.334Z,16.71
2022-10-24T07:33:51.801Z,16.71
2022-10-24T07:36:23.348Z,16.72
2022-10-24T07:38:50.909Z,16.72
2022-10-24T07:41:17.990Z,16.73
2022-10-24T07:43:45.809Z,16.74
2022-10-24T07:46:14.804Z,16.74
2022-10-24T07:48:42.748Z,16.75
2022-10-24T07:51:11.175Z,16.76
2022-10-24T07:53:38.132Z,16.76
2022-10-24T07:56:10.651Z,16.76
2022-10-24T07:58:37.746Z,16.78
2022-10-24T08:01:12.060Z,16.79
2022-10-24T08:03:39.054Z,16.79
2022-10-24T08:06:07.245Z,16.81
2022-10-24T08:08:37.806Z,16.82
2022-10-24T08:11:22.173Z,16.83
2022-10-24T08:13:49.969Z,16.85
2022-10-24T08:16:17.292Z,16.85
2022-10-24T08:18:44.488Z,16.86
2022-10-24T08:21:12.958Z,16.86
2022-10-24T08:23:41.834Z,16.88
2022-10-24T08:26:09.412Z,16.86
2022-10-24T08:28:36.549Z,16.88
2022-10-24T08:31:05.565Z,16.88
2022-10-24T08:33:32.618Z,16.89
2022-10-24T08:36:00.963Z,16.90
2022-10-24T08:38:28.637Z,16.90
2022-10-24T08:40:56.027Z,16.90
2022-10-24T08:43:23.050Z,16.91
2022-10-24T08:46:15.888Z,16.93
2022-10-24T08:48:46.190Z,16.92
2022-10-24T08:51:42.747Z,16.93
2022-10-24T08:54:14.617Z,16.93
2022-10-24T08:56:41.513Z,16.94
2022-10-24T08:59:10.725Z,16.94
2022-10-24T09:01:48.526Z,16.95
2022-10-24T09:04:18.042Z,16.94
2022-10-24T09:06:44.948Z,16.95
2022-10-24T09:09:24.710Z,16.97
2022-10-24T09:12:12.302Z,16.97
2022-10-24T09:14:39.696Z,16.97
2022-10-24T09:17:45.323Z,16.98
2022-10-24T09:20:26.727Z,16.98
2022-10-24T09:22:54.269Z,16.98
2022-10-24T09:25:23.138Z,16.99
2022-10-24T09:27:50.309Z,16.99
2022-10-24T09:30:19.713Z,17.00
2022-10-24T09:32:46.763Z,16.99
2022-10-24T09:35:24.696Z,17.00
2022-10-24T09:37:58.724Z,16.99
2022-10-24T09:40:32.956Z,17.01
2022-10-24T09:43:05.721Z,17.01
2022-10-24T09:45:42.098Z,17.01
2022-10-24T09:48:20.054Z,17.01
2022-10-24T09:50:47.524Z,17.01
2022-10-24T09:53:26.559Z,17.02
2022-10-24T09:56:13.557Z,17.03
2022-10-24T09:58:40.661Z,17.03
2022-10-24T10:01:21.526Z,17.04
2022-10-24T10:04:09.359Z,17.05
2022-10-24T10:06:36.444Z,17.06
2022-10-24T10:09:03.443Z,17.06
2022-10-24T10:11:35.122Z,17.05
2022-10-24T10:14:04.605Z,17.06
2022-10-24T10:16:33.891Z,17.08
2022-10-24T10:19:05.787Z,17.08
2022-10-24T10:22:02.665Z,17.08
2022-10-24T10:24:43.516Z,17.09
2022-10-24T10:27:33.616Z,17.10
2022-10-24T10:30:12.544Z,17.10
2022-10-24T10:33:09.901Z,17.10
2022-10-24T10:35:47.567Z,17.10
2022-10-24T10:38:26.473Z,17.12
2022-10-24T10:41:31.519Z,17.13
2022-10-24T10:44:16.894Z,17.14
2022-10-24T10:47:11.700Z,17.15
2022-10-24T10:49:42.677Z,17.15
2022-10-24T10:52:13.293Z,17.17
2022-10-24T10:55:01.543Z,17.17
2022-10-24T10:57:47.016Z,17.17
2022-10-24T11:00:35.157Z,17.19
2022-10-24T11:03:05.735Z,17.19
2022-10-24T11:05:54.589Z,17.22
2022-10-24T11:08:33.558Z,17.22
2022-10-24T11:11:03.579Z,17.23
2022-10-24T11:13:34.664Z,17.25
2022-10-24T11:16:03.558Z,17.25
2022-10-24T11:18:35.326Z,17.26
2022-10-24T11:21:21.878Z,17.28
2022-10-24T11:23:55.687Z,17.31
2022-10-24T11:26:40.871Z,17.31
2022-10-24T11:29:16.052Z,17.33
2022-10-24T11:32:06.571Z,17.35
2022-10-24T11:34:33.406Z,17.37
2022-10-24T11:37:07.928Z,17.38
2022-10-24T11:40:11.349Z,17.40
2022-10-24T11:42:52.682Z,17.43
2022-10-24T11:45:21.121Z,17.46
2022-10-24T11:48:02.798Z,17.49
2022-10-24T11:50:49.852Z,17.50
2022-10-24T11:53:23.028Z,17.52
2022-10-24T11:55:56.532Z,17.55
2022-10-24T11:58:24.174Z,17.57
2022-10-24T12:01:28.240Z,17.59
2022-10-24T12:04:22.885Z,17.63
2022-10-24T12:06:55.583Z,17.65
2022-10-24T12:09:43.438Z,17.67
2022-10-24T12:12:29.469Z,17.69
2022-10-24T12:15:24.039Z,17.73
2022-10-24T12:18:09.884Z,17.76
2022-10-24T12:20:36.792Z,17.78
2022-10-24T12:23:03.790Z,17.81
2022-10-24T12:25:35.557Z,17.84
2022-10-24T12:28:08.867Z,17.88
2022-10-24T12:30:36.431Z,17.90
2022-10-24T12:33:26.372Z,17.94
2022-10-24T12:35:56.650Z,17.97
2022-10-24T12:38:29.274Z,18.00
2022-10-24T12:40:58.009Z,18.03
2022-10-24T12:43:32.127Z,18.06
2022-10-24T12:46:01.593Z,18.09
2022-10-24T12:48:36.279Z,18.12
2022-10-24T12:51:12.156Z,18.15
2022-10-24T12:54:00.002Z,18.17
2022-10-24T12:56:26.948Z,18.20
2022-10-24T12:58:58.659Z,18.23
2022-10-24T13:01:29.864Z,18.25
2022-10-24T13:04:08.632Z,18.29
2022-10-24T13:07:00.244Z,18.31
2022-10-24T13:09:45.831Z,18.34
2022-10-24T13:12:17.472Z,18.36
2022-10-24T13:15:17.657Z,18.38
2022-10-24T13:18:05.564Z,18.38
2022-10-24T13:20:38.627Z,18.42
2022-10-24T13:23:21.553Z,18.43
2022-10-24T13:25:49.958Z,18.43
2022-10-24T13:28:20.003Z,18.44
2022-10-24T13:30:49.698Z,18.45
2022-10-24T13:33:36.760Z,18.44
2022-10-24T13:36:09.594Z,18.44
2022-10-24T13:39:03.192Z,18.44
2022-10-24T13:41:40.763Z,18.44
2022-10-24T13:44:29.253Z,18.43
2022-10-24T13:47:00.489Z,18.44
2022-10-24T13:49:51.311Z,18.43
2022-10-24T13:52:54.192Z,18.43
2022-10-24T13:55:26.858Z,18.41
2022-10-24T13:58:08.706Z,18.42
2022-10-24T14:00:37.620Z,18.42
2022-10-24T14:03:05.537Z,18.41
2022-10-24T14:05:46.134Z,18.41
2022-10-24T14:08:29.331Z,18.40
2022-10-24T14:10:56.504Z,18.38
2022-10-24T14:13:24.072Z,18.39
2022-10-24T14:15:52.684Z,18.39
2022-10-24T14:18:19.957Z,18.37
2022-10-24T14:20:57.757Z,18.38
2022-10-24T14:23:29.630Z,18.37
2022-10-24T14:26:13.737Z,18.37
2022-10-24T14:28:50.808Z,18.37
2022-10-24T14:31:31.406Z,18.35
2022-10-24T14:33:58.896Z,18.36
2022-10-24T14:36:31.082Z,18.35
2022-10-24T14:38:59.734Z,18.34
2022-10-24T14:41:30.021Z,18.33
2022-10-24T14:43:59.184Z,18.33
2022-10-24T14:46:35.871Z,18.33
2022-10-24T14:49:22.492Z,18.32
2022-10-24T14:51:50.806Z,18.32
2022-10-24T14:54:22.756Z,18.31
2022-10-24T14:56:50.056Z,18.30
2022-10-24T14:59:35.295Z,18.30
2022-10-24T15:02:08.029Z,18.28
2022-10-24T15:04:41.566Z,18.27
2022-10-24T15:07:23.592Z,18.27
2022-10-24T15:10:01.748Z,18.27
2022-10-24T15:12:42.397Z,18.27
2022-10-24T15:15:22.544Z,18.26
2022-10-24T15:17:59.628Z,18.24
2022-10-24T15:20:30.307Z,18.25
2022-10-24T15:23:00.013Z,18.24
2022-10-24T15:25:40.546Z,18.27
2022-10-24T15:28:56.025Z,18.27
2022-10-24T15:31:24.735Z,18.31
2022-10-24T15:33:51.661Z,18.31
2022-10-24T15:36:34.949Z,18.34
2022-10-24T15:39:06.552Z,18.35
2022-10-24T15:42:33.315Z,18.37
2022-10-24T15:45:00.447Z,18.39
2022-10-24T15:47:27.400Z,18.40
2022-10-24T15:49:54.335Z,18.42
2022-10-24T15:52:21.276Z,18.42
2022-10-24T15:54:48.149Z,18.43
2022-10-24T15:57:15.083Z,18.44
2022-10-24T15:59:42.041Z,18.43
2022-10-24T16:02:14.731Z,18.43
2022-10-24T16:04:42.646Z,18.43
2022-10-24T16:07:10.835Z,18.43
2022-10-24T16:09:38.165Z,18.42
2022-10-24T16:12:05.168Z,18.42
2022-10-24T16:14:32.546Z,18.40
2022-10-24T16:16:59.664Z,18.39
2022-10-24T16:19:26.804Z,18.40
2022-10-24T16:21:58.613Z,18.40
2022-10-24T16:24:26.535Z,18.40
2022-10-24T16:26:53.478Z,18.38
2022-10-24T16:29:20.371Z,18.38
2022-10-24T16:31:49.311Z,18.37
2022-10-24T16:34:16.239Z,18.37
2022-10-24T16:36:43.222Z,18.36
2022-10-24T16:39:10.134Z,18.36
2022-10-24T16:41:37.046Z,18.35
2022-10-24T16:44:04.056Z,18.35
2022-10-24T16:46:31.143Z,18.34
2022-10-24T16:48:58.143Z,18.34
2022-10-24T16:51:27.777Z,18.33
2022-10-24T16:53:54.754Z,18.32
2022-10-24T16:56:21.640Z,18.30
2022-10-24T16:58:48.568Z,18.30
2022-10-24T17:01:15.886Z,18.32
2022-10-24T17:03:43.692Z,18.33
2022-10-24T17:06:10.619Z,18.34
2022-10-24T17:08:37.617Z,18.36
2022-10-24T17:11:09.547Z,18.38
2022-10-24T17:13:39.617Z,18.40
2022-10-24T17:16:10.564Z,18.43
2022-10-24T17:18:37.828Z,18.45
2022-10-24T17:21:04.906Z,18.48
2022-10-24T17:23:32.148Z,18.49
2022-10-24T17:25:59.519Z,18.51
2022-10-24T17:28:30.960Z,18.54
2022-10-24T17:31:00.381Z,18.56
2022-10-24T17:33:27.480Z,18.59
2022-10-24T17:35:56.169Z,18.61
2022-10-24T17:38:34.569Z,18.63
2022-10-24T17:41:08.400Z,18.67
2022-10-24T17:43:35.556Z,18.67
2022-10-24T17:46:02.667Z,18.69
2022-10-24T17:48:29.801Z,18.72
2022-10-24T17:50:56.984Z,18.73
2022-10-24T17:53:23.907Z,18.76
2022-10-24T17:55:50.864Z,18.78
2022-10-24T17:58:17.949Z,18.81
2022-10-24T18:00:45.004Z,18.83
2022-10-24T18:03:12.077Z,18.84
2022-10-24T18:05:39.235Z,18.85
2022-10-24T18:08:07.302Z,18.85
2022-10-24T18:10:34.337Z,18.85
2022-10-24T18:13:02.115Z,18.85
2022-10-24T18:15:29.105Z,18.85
2022-10-24T18:17:56.017Z,18.86
2022-10-24T18:20:22.915Z,18.85
2022-10-24T18:22:50.114Z,18.85
2022-10-24T18:25:20.326Z,18.85
2022-10-24T18:27:49.887Z,18.83
2022-10-24T18:30:16.958Z,18.83
2022-10-24T18:32:44.726Z,18.82
2022-10-24T18:35:12.365Z,18.82
2022-10-24T18:37:39.392Z,18.81
2022-10-24T18:40:07.797Z,18.81
2022-10-24T18:43:07.751Z,18.80
2022-10-24T18:45:35.419Z,18.79
2022-10-24T18:48:02.808Z,18.78
2022-10-24T18:50:29.955Z,18.77
2022-10-24T18:53:07.708Z,18.77
2022-10-24T18:55:35.303Z,18.75
2022-10-24T18:58:02.349Z,18.77
2022-10-24T19:00:31.331Z,18.73
2022-10-24T19:03:05.349Z,18.73
2022-10-24T19:05:52.031Z,18.71
2022-10-24T19:08:23.012Z,18.70
2022-10-24T19:10:52.037Z,18.69
2022-10-24T19:13:19.068Z,18.69
2022-10-24T19:15:49.337Z,18.68
2022-10-24T19:18:16.639Z,18.67
2022-10-24T19:20:43.644Z,18.66
2022-10-24T19:23:14.242Z,18.66
2022-10-24T19:25:41.178Z,18.67
2022-10-24T19:28:08.271Z,18.66
2022-10-24T19:30:35.170Z,18.65
2022-10-24T19:33:02.218Z,18.65
2022-10-24T19:35:29.181Z,18.65
2022-10-24T19:37:56.222Z,18.64
2022-10-24T19:40:23.493Z,18.64
2022-10-24T19:42:51.018Z,18.63
2022-10-24T19:45:21.419Z,18.61
2022-10-24T19:47:55.203Z,18.62
2022-10-24T19:50:22.213Z,18.60
2022-10-24T19:52:49.086Z,18.60
2022-10-24T19:55:16.057Z,18.58
2022-10-24T19:57:43.153Z,18.58
2022-10-24T20:00:11.086Z,18.56
2022-10-24T20:02:38.009Z,18.56
2022-10-24T20:05:05.339Z,18.55
2022-10-24T20:07:33.103Z,18.55
2022-10-24T20:10:00.335Z,18.54
2022-10-24T20:12:27.405Z,18.54
2022-10-24T20:14:54.303Z,18.53
2022-10-24T20:17:21.242Z,18.54
2022-10-24T20:19:48.190Z,18.54
2022-10-24T20:22:15.075Z,18.53
2022-10-24T20:24:42.468Z,18.53
2022-10-24T20:27:09.410Z,18.53
2022-10-24T20:29:36.906Z,18.52
2022-10-24T20:32:03.877Z,18.51
2022-10-24T20:34:30.894Z,18.50
2022-10-24T20:36:57.777Z,18.49
2022-10-24T20:39:24.848Z,18.50
2022-10-24T20:41:54.116Z,18.48
2022-10-24T20:44:21.270Z,18.48
2022-10-24T20:46:48.232Z,18.47
2022-10-24T20:49:15.175Z,18.47
2022-10-24T20:51:42.749Z,18.45
2022-10-24T20:54:10.656Z,18.46
2022-10-24T20:56:42.043Z,18.46
2022-10-24T20:59:09.363Z,18.44
2022-10-24T21:01:36.366Z,18.45
2022-10-24T21:04:03.348Z,18.43
2022-10-24T21:06:32.132Z,18.44
2022-10-24T21:09:00.931Z,18.43
2022-10-24T21:11:28.971Z,18.43
2022-10-24T21:13:56.787Z,18.42
2022-10-24T21:16:23.806Z,18.42
2022-10-24T21:18:50.875Z,18.42
2022-10-24T21:21:17.840Z,18.42
2022-10-24T21:23:44.969Z,18.42
2022-10-24T21:26:13.230Z,18.41
2022-10-24T21:28:40.225Z,18.40
2022-10-24T21:31:11.908Z,18.40
2022-10-24T21:33:39.651Z,18.39
2022-10-24T21:36:07.825Z,18.38
2022-10-24T21:38:34.989Z,18.39
2022-10-24T21:41:02.885Z,18.38
2022-10-24T21:43:34.510Z,18.38
2022-10-24T21:46:12.097Z,18.37
2022-10-24T21:48:39.395Z,18.36
2022-10-24T21:51:21.160Z,18.37
2022-10-24T21:53:48.775Z,18.36
2022-10-24T21:56:17.661Z,18.36
2022-10-24T21:58:48.487Z,18.36
2022-10-24T22:01:17.710Z,18.36
2022-10-24T22:03:44.761Z,18.35
2022-10-24T22:06:13.052Z,18.32
2022-10-24T22:08:39.986Z,18.34
2022-10-24T22:11:08.635Z,18.34
2022-10-24T22:13:35.746Z,18.34
2022-10-24T22:16:02.899Z,18.33
2022-10-24T22:18:30.734Z,18.33
2022-10-24T22:20:57.713Z,18.33
2022-10-24T22:23:24.841Z,18.33
2022-10-24T22:25:51.786Z,18.32
2022-10-24T22:28:18.765Z,18.33
2022-10-24T22:30:46.168Z,18.32
2022-10-24T22:33:21.918Z,18.32
2022-10-24T22:35:52.345Z,18.32
2022-10-24T22:38:19.475Z,18.32
2022-10-24T22:40:46.854Z,18.32
2022-10-24T22:43:15.185Z,18.31
2022-10-24T22:45:46.119Z,18.31
2022-10-24T22:48:20.553Z,18.29
2022-10-24T22:50:57.132Z,18.30
2022-10-24T22:53:29.204Z,18.31
2022-10-24T22:56:15.227Z,18.30
2022-10-24T22:58:43.266Z,18.30
2022-10-24T23:01:19.137Z,18.29
2022-10-24T23:03:51.798Z,18.29
2022-10-24T23:06:46.918Z,18.28
2022-10-24T23:09:13.864Z,18.28
2022-10-24T23:11:40.981Z,18.29
2022-10-24T23:14:08.123Z,18.28
2022-10-24T23:16:57.214Z,18.29
2022-10-24T23:19:30.353Z,18.28
2022-10-24T23:22:07.977Z,18.27
2022-10-24T23:24:35.037Z,18.28
2022-10-24T23:27:19.946Z,18.27
2022-10-24T23:29:47.345Z,18.27
2022-10-24T23:32:26.811Z,18.27
2022-10-24T23:34:54.482Z,18.27
2022-10-24T23:37:37.259Z,18.27
2022-10-24T23:40:32.877Z,18.26
2022-10-24T23:43:00.199Z,18.26
2022-10-24T23:45:29.186Z,18.26
2022-10-24T23:48:11.122Z,18.26
2022-10-24T23:50:48.792Z,18.26
2022-10-24T23:53:27.677Z,18.25
2022-10-24T23:55:54.921Z,18.24
2022-10-24T23:58:21.939Z,18.25
